aviador You're here:

PATO Decoded Metar

PORTAGE GLACIER in AK, USA
Report Time2017-05-26 11:53:00
UTC Time2017-05-26 13:01:22
Flight Rules Old
WindVRB at 04 kt
Visibility9999 m
Phenomena:N/A
Clouds:Broken 070 Hf
Expected CloudBase > 1,200 ft AGL from Temp-Dew spread
Ceiling7,000 ft
Temp03°C (ISA -12)
Dew Point00°C (81% RH)
AAT-0.4°C
QNH1019 hPa
Density Alt-1,450 ft
Elevation102 ft
Report Wrong Elevation
Raw Report
PATO 261153Z AUTO VRB04KT 10SM BKN070 03/00 A3010 RMK AO2 SLP192
T00330000 10050 20033 51012 TSNO=

Extra information for PATO:More info

Metar Taf Metar & Taf Last 4 Metars F.Rules Stats Wind Profile Meteogram Temp Stats Airport Information Weather charts Add Link Nearby VenuesMetar ALERT Operation Metar Decoded Social comments

AIRNAV info for PATO